sensor_id;sensor_type;location;lat;lon;timestamp;temperature;humidity
51815;DHT22;37874;53.158;6.766;2023-02-08T00:01:23;16.20;53.60
51815;DHT22;37874;53.158;6.766;2023-02-08T00:03:50;16.20;53.60
51815;DHT22;37874;53.158;6.766;2023-02-08T00:06:16;16.20;53.60
51815;DHT22;37874;53.158;6.766;2023-02-08T00:08:42;16.20;53.50
51815;DHT22;37874;53.158;6.766;2023-02-08T00:11:08;16.40;53.70
51815;DHT22;37874;53.158;6.766;2023-02-08T00:13:39;16.20;53.60
51815;DHT22;37874;53.158;6.766;2023-02-08T00:16:05;16.20;53.50
51815;DHT22;37874;53.158;6.766;2023-02-08T00:18:31;16.20;53.50
51815;DHT22;37874;53.158;6.766;2023-02-08T00:20:57;16.50;53.70
51815;DHT22;37874;53.158;6.766;2023-02-08T00:23:25;16.10;53.40
51815;DHT22;37874;53.158;6.766;2023-02-08T00:25:51;16.10;53.50
51815;DHT22;37874;53.158;6.766;2023-02-08T00:28:17;16.20;53.50
51815;DHT22;37874;53.158;6.766;2023-02-08T00:30:43;16.20;53.50
51815;DHT22;37874;53.158;6.766;2023-02-08T00:33:09;16.40;53.50
51815;DHT22;37874;53.158;6.766;2023-02-08T00:35:34;16.20;53.40
51815;DHT22;37874;53.158;6.766;2023-02-08T00:38:00;16.10;53.30
51815;DHT22;37874;53.158;6.766;2023-02-08T00:40:26;16.10;53.30
51815;DHT22;37874;53.158;6.766;2023-02-08T00:42:52;16.10;53.30
51815;DHT22;37874;53.158;6.766;2023-02-08T00:45:18;16.10;53.20
51815;DHT22;37874;53.158;6.766;2023-02-08T00:47:43;16.40;53.40
51815;DHT22;37874;53.158;6.766;2023-02-08T00:50:10;16.10;53.30
51815;DHT22;37874;53.158;6.766;2023-02-08T00:52:36;16.10;53.30
51815;DHT22;37874;53.158;6.766;2023-02-08T00:55:02;16.00;53.20
51815;DHT22;37874;53.158;6.766;2023-02-08T00:57:27;16.10;53.20
51815;DHT22;37874;53.158;6.766;2023-02-08T00:59:53;16.10;53.20
51815;DHT22;37874;53.158;6.766;2023-02-08T01:02:19;16.50;53.40
51815;DHT22;37874;53.158;6.766;2023-02-08T01:04:44;16.00;53.10
51815;DHT22;37874;53.158;6.766;2023-02-08T01:07:10;16.00;53.10
51815;DHT22;37874;53.158;6.766;2023-02-08T01:09:35;16.00;53.10
51815;DHT22;37874;53.158;6.766;2023-02-08T01:12:01;16.00;53.10
51815;DHT22;37874;53.158;6.766;2023-02-08T01:14:27;16.00;53.10
51815;DHT22;37874;53.158;6.766;2023-02-08T01:16:53;15.90;53.00
51815;DHT22;37874;53.158;6.766;2023-02-08T01:19:18;16.30;53.20
51815;DHT22;37874;53.158;6.766;2023-02-08T01:21:44;16.00;53.10
51815;DHT22;37874;53.158;6.766;2023-02-08T01:24:11;15.90;53.10
51815;DHT22;37874;53.158;6.766;2023-02-08T01:26:37;15.90;53.10
51815;DHT22;37874;53.158;6.766;2023-02-08T01:29:03;16.00;53.00
51815;DHT22;37874;53.158;6.766;2023-02-08T01:31:40;16.60;53.30
51815;DHT22;37874;53.158;6.766;2023-02-08T01:34:07;16.00;52.90
51815;DHT22;37874;53.158;6.766;2023-02-08T01:36:34;16.00;53.00
51815;DHT22;37874;53.158;6.766;2023-02-08T01:39:01;15.90;52.90
51815;DHT22;37874;53.158;6.766;2023-02-08T01:41:32;15.90;52.90
51815;DHT22;37874;53.158;6.766;2023-02-08T01:46:41;15.90;52.80
51815;DHT22;37874;53.158;6.766;2023-02-08T01:49:23;15.90;52.80
51815;DHT22;37874;53.158;6.766;2023-02-08T01:51:58;15.90;52.80
51815;DHT22;37874;53.158;6.766;2023-02-08T01:54:29;15.90;52.80
51815;DHT22;37874;53.158;6.766;2023-02-08T01:56:55;15.90;52.80
51815;DHT22;37874;53.158;6.766;2023-02-08T01:59:43;15.90;52.80
51815;DHT22;37874;53.158;6.766;2023-02-08T02:02:13;15.90;52.70
51815;DHT22;37874;53.158;6.766;2023-02-08T02:04:40;15.90;52.70
51815;DHT22;37874;53.158;6.766;2023-02-08T02:07:06;16.10;52.80
51815;DHT22;37874;53.158;6.766;2023-02-08T02:12:08;15.80;52.60
51815;DHT22;37874;53.158;6.766;2023-02-08T02:14:36;15.90;52.60
51815;DHT22;37874;53.158;6.766;2023-02-08T02:17:02;15.90;52.60
51815;DHT22;37874;53.158;6.766;2023-02-08T02:19:38;15.80;52.60
51815;DHT22;37874;53.158;6.766;2023-02-08T02:22:35;15.80;52.50
51815;DHT22;37874;53.158;6.766;2023-02-08T02:38:25;15.80;52.50
51815;DHT22;37874;53.158;6.766;2023-02-08T02:41:14;15.70;52.40
51815;DHT22;37874;53.158;6.766;2023-02-08T02:44:02;15.80;52.50
51815;DHT22;37874;53.158;6.766;2023-02-08T02:46:40;15.70;52.40
51815;DHT22;37874;53.158;6.766;2023-02-08T02:52:40;15.70;52.50
51815;DHT22;37874;53.158;6.766;2023-02-08T02:55:10;15.70;52.50
51815;DHT22;37874;53.158;6.766;2023-02-08T02:57:39;15.70;52.50
51815;DHT22;37874;53.158;6.766;2023-02-08T03:00:09;15.80;52.60
51815;DHT22;37874;53.158;6.766;2023-02-08T03:02:35;15.70;52.60
51815;DHT22;37874;53.158;6.766;2023-02-08T03:05:02;15.80;53.10
51815;DHT22;37874;53.158;6.766;2023-02-08T03:07:54;15.60;52.40
51815;DHT22;37874;53.158;6.766;2023-02-08T03:10:43;15.60;52.40
51815;DHT22;37874;53.158;6.766;2023-02-08T03:13:44;15.60;52.40
51815;DHT22;37874;53.158;6.766;2023-02-08T03:27:39;15.60;52.30
51815;DHT22;37874;53.158;6.766;2023-02-08T03:30:10;15.60;52.30
51815;DHT22;37874;53.158;6.766;2023-02-08T03:32:51;15.60;52.40
51815;DHT22;37874;53.158;6.766;2023-02-08T03:35:24;15.80;52.50
51815;DHT22;37874;53.158;6.766;2023-02-08T03:38:02;15.60;52.20
51815;DHT22;37874;53.158;6.766;2023-02-08T03:40:39;15.60;52.20
51815;DHT22;37874;53.158;6.766;2023-02-08T03:43:16;15.50;52.20
51815;DHT22;37874;53.158;6.766;2023-02-08T03:45:50;16.30;52.60
51815;DHT22;37874;53.158;6.766;2023-02-08T03:48:19;15.60;52.30
51815;DHT22;37874;53.158;6.766;2023-02-08T03:50:49;15.50;52.20
51815;DHT22;37874;53.158;6.766;2023-02-08T03:53:19;15.50;52.20
51815;DHT22;37874;53.158;6.766;2023-02-08T03:55:47;15.50;52.20
51815;DHT22;37874;53.158;6.766;2023-02-08T03:58:42;15.70;52.30
51815;DHT22;37874;53.158;6.766;2023-02-08T04:01:22;15.50;52.20
51815;DHT22;37874;53.158;6.766;2023-02-08T04:03:50;15.50;52.20
51815;DHT22;37874;53.158;6.766;2023-02-08T04:06:19;15.50;52.20
51815;DHT22;37874;53.158;6.766;2023-02-08T04:08:45;15.40;52.10
51815;DHT22;37874;53.158;6.766;2023-02-08T04:11:11;15.40;52.10
51815;DHT22;37874;53.158;6.766;2023-02-08T04:13:37;15.40;52.10
51815;DHT22;37874;53.158;6.766;2023-02-08T04:16:03;15.50;52.10
51815;DHT22;37874;53.158;6.766;2023-02-08T04:18:28;15.50;52.10
51815;DHT22;37874;53.158;6.766;2023-02-08T04:20:54;16.00;52.40
51815;DHT22;37874;53.158;6.766;2023-02-08T04:23:19;15.40;52.10
51815;DHT22;37874;53.158;6.766;2023-02-08T04:25:45;16.70;52.80
51815;DHT22;37874;53.158;6.766;2023-02-08T04:28:11;15.40;52.10
51815;DHT22;37874;53.158;6.766;2023-02-08T04:30:36;16.60;52.80
51815;DHT22;37874;53.158;6.766;2023-02-08T04:33:02;15.40;52.10
51815;DHT22;37874;53.158;6.766;2023-02-08T04:35:28;15.40;52.10
51815;DHT22;37874;53.158;6.766;2023-02-08T04:37:54;15.40;52.10
51815;DHT22;37874;53.158;6.766;2023-02-08T04:40:19;15.40;52.20
51815;DHT22;37874;53.158;6.766;2023-02-08T04:42:45;15.40;52.00
51815;DHT22;37874;53.158;6.766;2023-02-08T04:45:10;15.40;52.10
51815;DHT22;37874;53.158;6.766;2023-02-08T04:47:36;16.50;52.60
51815;DHT22;37874;53.158;6.766;2023-02-08T04:50:02;15.30;52.00
51815;DHT22;37874;53.158;6.766;2023-02-08T04:52:28;15.30;52.00
51815;DHT22;37874;53.158;6.766;2023-02-08T04:54:55;15.30;52.10
51815;DHT22;37874;53.158;6.766;2023-02-08T04:57:21;15.30;52.00
51815;DHT22;37874;53.158;6.766;2023-02-08T04:59:46;15.30;52.10
51815;DHT22;37874;53.158;6.766;2023-02-08T05:02:12;16.90;52.90
51815;DHT22;37874;53.158;6.766;2023-02-08T05:04:38;15.30;52.10
51815;DHT22;37874;53.158;6.766;2023-02-08T05:07:03;15.30;52.10
51815;DHT22;37874;53.158;6.766;2023-02-08T05:09:29;15.20;52.00
51815;DHT22;37874;53.158;6.766;2023-02-08T05:11:54;15.40;52.10
51815;DHT22;37874;53.158;6.766;2023-02-08T05:14:20;15.30;52.00
51815;DHT22;37874;53.158;6.766;2023-02-08T05:16:46;15.90;52.40
51815;DHT22;37874;53.158;6.766;2023-02-08T05:19:11;15.20;52.00
51815;DHT22;37874;53.158;6.766;2023-02-08T05:21:37;15.20;52.00
51815;DHT22;37874;53.158;6.766;2023-02-08T05:24:03;15.20;52.00
51815;DHT22;37874;53.158;6.766;2023-02-08T05:26:28;15.20;52.10
51815;DHT22;37874;53.158;6.766;2023-02-08T05:28:54;15.20;51.90
51815;DHT22;37874;53.158;6.766;2023-02-08T05:31:22;15.20;51.90
51815;DHT22;37874;53.158;6.766;2023-02-08T05:33:49;15.20;51.80
51815;DHT22;37874;53.158;6.766;2023-02-08T05:36:15;15.20;51.90
51815;DHT22;37874;53.158;6.766;2023-02-08T05:38:41;15.20;51.80
51815;DHT22;37874;53.158;6.766;2023-02-08T05:41:06;15.30;51.90
51815;DHT22;37874;53.158;6.766;2023-02-08T05:43:32;15.20;51.90
51815;DHT22;37874;53.158;6.766;2023-02-08T05:45:57;15.70;52.10
51815;DHT22;37874;53.158;6.766;2023-02-08T05:48:23;15.20;51.80
51815;DHT22;37874;53.158;6.766;2023-02-08T05:50:49;15.20;51.80
51815;DHT22;37874;53.158;6.766;2023-02-08T05:53:14;14.90;51.60
51815;DHT22;37874;53.158;6.766;2023-02-08T05:55:43;15.30;51.90
51815;DHT22;37874;53.158;6.766;2023-02-08T05:58:10;15.30;51.80
51815;DHT22;37874;53.158;6.766;2023-02-08T06:00:36;15.30;51.70
51815;DHT22;37874;53.158;6.766;2023-02-08T06:03:02;15.30;51.70
51815;DHT22;37874;53.158;6.766;2023-02-08T06:05:28;15.30;51.70
51815;DHT22;37874;53.158;6.766;2023-02-08T06:07:53;16.50;52.40
51815;DHT22;37874;53.158;6.766;2023-02-08T06:10:19;16.70;52.50
51815;DHT22;37874;53.158;6.766;2023-02-08T06:12:45;15.40;51.60
51815;DHT22;37874;53.158;6.766;2023-02-08T06:15:11;15.40;51.40
51815;DHT22;37874;53.158;6.766;2023-02-08T06:17:36;15.40;51.40
51815;DHT22;37874;53.158;6.766;2023-02-08T06:20:03;16.10;51.60
51815;DHT22;37874;53.158;6.766;2023-02-08T06:22:29;15.50;51.20
51815;DHT22;37874;53.158;6.766;2023-02-08T06:24:55;15.50;51.20
51815;DHT22;37874;53.158;6.766;2023-02-08T06:27:20;15.70;51.20
51815;DHT22;37874;53.158;6.766;2023-02-08T06:29:46;15.60;51.10
51815;DHT22;37874;53.158;6.766;2023-02-08T06:32:12;16.80;51.80
51815;DHT22;37874;53.158;6.766;2023-02-08T06:34:37;15.60;51.10
51815;DHT22;37874;53.158;6.766;2023-02-08T06:37:03;15.60;51.10
51815;DHT22;37874;53.158;6.766;2023-02-08T06:39:30;15.80;51.10
51815;DHT22;37874;53.158;6.766;2023-02-08T06:41:56;15.60;51.10
51815;DHT22;37874;53.158;6.766;2023-02-08T06:44:22;15.60;51.00
51815;DHT22;37874;53.158;6.766;2023-02-08T06:46:48;15.70;51.10
51815;DHT22;37874;53.158;6.766;2023-02-08T06:49:13;15.70;51.10
51815;DHT22;37874;53.158;6.766;2023-02-08T06:51:39;15.70;51.10
51815;DHT22;37874;53.158;6.766;2023-02-08T06:54:05;16.10;51.30
51815;DHT22;37874;53.158;6.766;2023-02-08T06:56:31;15.70;51.20
51815;DHT22;37874;53.158;6.766;2023-02-08T06:58:57;15.70;51.10
51815;DHT22;37874;53.158;6.766;2023-02-08T07:01:23;15.70;51.00
51815;DHT22;37874;53.158;6.766;2023-02-08T07:03:49;15.70;51.10
51815;DHT22;37874;53.158;6.766;2023-02-08T07:06:16;15.80;51.10
51815;DHT22;37874;53.158;6.766;2023-02-08T07:08:45;15.80;51.20
51815;DHT22;37874;53.158;6.766;2023-02-08T07:11:16;15.80;51.10
51815;DHT22;37874;53.158;6.766;2023-02-08T07:13:48;15.80;51.10
51815;DHT22;37874;53.158;6.766;2023-02-08T07:16:14;15.80;51.10
51815;DHT22;37874;53.158;6.766;2023-02-08T07:18:40;15.80;51.10
51815;DHT22;37874;53.158;6.766;2023-02-08T07:21:05;15.80;51.10
51815;DHT22;37874;53.158;6.766;2023-02-08T07:23:31;16.80;51.50
51815;DHT22;37874;53.158;6.766;2023-02-08T07:26:05;17.00;51.70
51815;DHT22;37874;53.158;6.766;2023-02-08T07:28:32;15.80;50.80
51815;DHT22;37874;53.158;6.766;2023-02-08T07:30:58;15.90;50.90
51815;DHT22;37874;53.158;6.766;2023-02-08T07:33:24;15.90;50.90
51815;DHT22;37874;53.158;6.766;2023-02-08T07:35:50;15.90;50.80
51815;DHT22;37874;53.158;6.766;2023-02-08T07:38:16;17.40;51.60
51815;DHT22;37874;53.158;6.766;2023-02-08T07:40:43;16.00;50.80
51815;DHT22;37874;53.158;6.766;2023-02-08T07:43:08;16.00;50.80
51815;DHT22;37874;53.158;6.766;2023-02-08T07:45:36;16.00;50.70
51815;DHT22;37874;53.158;6.766;2023-02-08T07:48:02;16.10;50.70
51815;DHT22;37874;53.158;6.766;2023-02-08T07:50:28;16.10;50.60
51815;DHT22;37874;53.158;6.766;2023-02-08T07:52:53;16.10;51.20
51815;DHT22;37874;53.158;6.766;2023-02-08T07:55:19;16.10;50.70
51815;DHT22;37874;53.158;6.766;2023-02-08T07:57:46;16.10;50.70
51815;DHT22;37874;53.158;6.766;2023-02-08T10:01:34;16.50;50.00
51815;DHT22;37874;53.158;6.766;2023-02-08T10:04:41;16.50;49.90
51815;DHT22;37874;53.158;6.766;2023-02-08T10:07:04;16.50;49.90
51815;DHT22;37874;53.158;6.766;2023-02-08T10:09:30;16.50;50.50
51815;DHT22;37874;53.158;6.766;2023-02-08T10:18:11;16.60;49.90
51815;DHT22;37874;53.158;6.766;2023-02-08T10:23:51;16.60;49.90
51815;DHT22;37874;53.158;6.766;2023-02-08T10:29:14;16.70;49.90
51815;DHT22;37874;53.158;6.766;2023-02-08T10:32:19;16.70;49.80
51815;DHT22;37874;53.158;6.766;2023-02-08T10:35:02;16.70;49.90
51815;DHT22;37874;53.158;6.766;2023-02-08T10:37:34;16.80;49.90
51815;DHT22;37874;53.158;6.766;2023-02-08T10:43:04;16.70;50.10
51815;DHT22;37874;53.158;6.766;2023-02-08T10:46:13;16.70;50.20
51815;DHT22;37874;53.158;6.766;2023-02-08T10:51:38;16.70;50.20
51815;DHT22;37874;53.158;6.766;2023-02-08T10:54:04;16.70;50.30
51815;DHT22;37874;53.158;6.766;2023-02-08T10:56:36;16.70;50.30
51815;DHT22;37874;53.158;6.766;2023-02-08T10:59:18;16.80;50.40
51815;DHT22;37874;53.158;6.766;2023-02-08T11:01:46;16.80;50.30
51815;DHT22;37874;53.158;6.766;2023-02-08T11:04:13;16.80;50.20
51815;DHT22;37874;53.158;6.766;2023-02-08T11:06:41;16.80;50.20
51815;DHT22;37874;53.158;6.766;2023-02-08T11:09:23;16.90;50.30
51815;DHT22;37874;53.158;6.766;2023-02-08T11:11:49;16.90;50.20
51815;DHT22;37874;53.158;6.766;2023-02-08T11:14:47;16.90;50.20
51815;DHT22;37874;53.158;6.766;2023-02-08T11:17:28;17.00;50.20
51815;DHT22;37874;53.158;6.766;2023-02-08T11:19:59;17.10;50.00
51815;DHT22;37874;53.158;6.766;2023-02-08T11:22:26;17.10;49.90
51815;DHT22;37874;53.158;6.766;2023-02-08T11:24:58;18.80;50.60
51815;DHT22;37874;53.158;6.766;2023-02-08T11:32:42;17.40;49.30
51815;DHT22;37874;53.158;6.766;2023-02-08T11:37:57;17.60;49.10
51815;DHT22;37874;53.158;6.766;2023-02-08T11:40:33;17.60;48.90
51815;DHT22;37874;53.158;6.766;2023-02-08T11:42:59;17.70;48.80
51815;DHT22;37874;53.158;6.766;2023-02-08T11:45:31;17.70;48.60
51815;DHT22;37874;53.158;6.766;2023-02-08T11:47:58;17.80;48.60
51815;DHT22;37874;53.158;6.766;2023-02-08T11:50:28;17.90;48.50
51815;DHT22;37874;53.158;6.766;2023-02-08T11:53:24;18.90;48.80
51815;DHT22;37874;53.158;6.766;2023-02-08T11:59:01;18.10;48.00
51815;DHT22;37874;53.158;6.766;2023-02-08T12:03:57;18.40;47.40
51815;DHT22;37874;53.158;6.766;2023-02-08T12:26:05;18.30;46.80
51815;DHT22;37874;53.158;6.766;2023-02-08T12:34:34;18.20;47.10
51815;DHT22;37874;53.158;6.766;2023-02-08T12:40:40;18.10;47.20
51815;DHT22;37874;53.158;6.766;2023-02-08T12:52:36;18.00;47.20
51815;DHT22;37874;53.158;6.766;2023-02-08T12:57:46;17.90;47.70
51815;DHT22;37874;53.158;6.766;2023-02-08T13:00:29;17.80;47.70
51815;DHT22;37874;53.158;6.766;2023-02-08T13:05:47;17.80;47.80
51815;DHT22;37874;53.158;6.766;2023-02-08T13:10:50;17.80;47.80
51815;DHT22;37874;53.158;6.766;2023-02-08T13:13:34;17.80;48.10
51815;DHT22;37874;53.158;6.766;2023-02-08T13:21:38;18.20;48.10
51815;DHT22;37874;53.158;6.766;2023-02-08T13:24:24;17.80;47.90
51815;DHT22;37874;53.158;6.766;2023-02-08T13:26:50;17.90;48.60
51815;DHT22;37874;53.158;6.766;2023-02-08T13:29:20;17.90;48.00
51815;DHT22;37874;53.158;6.766;2023-02-08T13:31:50;17.90;47.90
51815;DHT22;37874;53.158;6.766;2023-02-08T13:34:32;18.00;48.20
51815;DHT22;37874;53.158;6.766;2023-02-08T13:37:02;18.00;48.40
51815;DHT22;37874;53.158;6.766;2023-02-08T13:39:33;18.30;48.30
51815;DHT22;37874;53.158;6.766;2023-02-08T13:42:01;18.50;48.40
51815;DHT22;37874;53.158;6.766;2023-02-08T13:44:34;18.20;48.30
51815;DHT22;37874;53.158;6.766;2023-02-08T13:47:01;18.20;47.50
51815;DHT22;37874;53.158;6.766;2023-02-08T13:57:59;18.30;47.00
51815;DHT22;37874;53.158;6.766;2023-02-08T14:00:32;18.30;46.90
51815;DHT22;37874;53.158;6.766;2023-02-08T14:05:53;18.40;46.60
51815;DHT22;37874;53.158;6.766;2023-02-08T14:14:16;18.60;46.20
51815;DHT22;37874;53.158;6.766;2023-02-08T14:16:44;18.70;46.10
51815;DHT22;37874;53.158;6.766;2023-02-08T14:24:23;18.90;46.00
51815;DHT22;37874;53.158;6.766;2023-02-08T14:27:10;18.90;46.10
51815;DHT22;37874;53.158;6.766;2023-02-08T14:29:41;18.90;46.30
51815;DHT22;37874;53.158;6.766;2023-02-08T14:32:07;18.90;46.40
51815;DHT22;37874;53.158;6.766;2023-02-08T14:34:36;18.90;46.20
51815;DHT22;37874;53.158;6.766;2023-02-08T14:39:42;18.90;46.50
51815;DHT22;37874;53.158;6.766;2023-02-08T14:42:11;18.90;46.50
51815;DHT22;37874;53.158;6.766;2023-02-08T14:49:36;18.90;47.70
51815;DHT22;37874;53.158;6.766;2023-02-08T14:52:11;19.90;48.80
51815;DHT22;37874;53.158;6.766;2023-02-08T14:55:02;18.90;47.60
51815;DHT22;37874;53.158;6.766;2023-02-08T14:57:33;19.00;47.60
51815;DHT22;37874;53.158;6.766;2023-02-08T15:00:03;19.40;48.00
51815;DHT22;37874;53.158;6.766;2023-02-08T15:02:30;19.00;48.00
51815;DHT22;37874;53.158;6.766;2023-02-08T15:04:58;19.00;47.80
51815;DHT22;37874;53.158;6.766;2023-02-08T15:07:46;19.00;47.60
51815;DHT22;37874;53.158;6.766;2023-02-08T15:10:15;19.00;47.60
51815;DHT22;37874;53.158;6.766;2023-02-08T15:12:53;19.10;47.70
51815;DHT22;37874;53.158;6.766;2023-02-08T15:15:27;19.70;47.80
51815;DHT22;37874;53.158;6.766;2023-02-08T15:17:54;19.40;47.50
51815;DHT22;37874;53.158;6.766;2023-02-08T15:20:26;21.00;48.20
51815;DHT22;37874;53.158;6.766;2023-02-08T15:25:30;19.80;47.70
51815;DHT22;37874;53.158;6.766;2023-02-08T15:27:59;19.80;46.90
51815;DHT22;37874;53.158;6.766;2023-02-08T15:32:53;19.90;46.70
51815;DHT22;37874;53.158;6.766;2023-02-08T15:35:20;20.00;46.60
51815;DHT22;37874;53.158;6.766;2023-02-08T15:37:47;20.00;46.50
51815;DHT22;37874;53.158;6.766;2023-02-08T15:40:25;20.10;46.50
51815;DHT22;37874;53.158;6.766;2023-02-08T15:42:51;20.10;46.60
51815;DHT22;37874;53.158;6.766;2023-02-08T15:45:27;20.10;46.50
51815;DHT22;37874;53.158;6.766;2023-02-08T15:47:56;20.40;46.50
51815;DHT22;37874;53.158;6.766;2023-02-08T15:50:23;21.30;47.00
51815;DHT22;37874;53.158;6.766;2023-02-08T15:53:00;20.10;46.60
51815;DHT22;37874;53.158;6.766;2023-02-08T15:55:30;20.00;46.50
51815;DHT22;37874;53.158;6.766;2023-02-08T15:58:06;19.90;46.70
51815;DHT22;37874;53.158;6.766;2023-02-08T16:00:36;19.80;47.00
51815;DHT22;37874;53.158;6.766;2023-02-08T16:03:08;19.80;47.10
51815;DHT22;37874;53.158;6.766;2023-02-08T16:05:48;20.00;47.50
51815;DHT22;37874;53.158;6.766;2023-02-08T16:08:29;19.50;47.50
51815;DHT22;37874;53.158;6.766;2023-02-08T16:11:20;19.50;47.80
51815;DHT22;37874;53.158;6.766;2023-02-08T16:13:49;19.40;48.00
51815;DHT22;37874;53.158;6.766;2023-02-08T16:16:17;19.30;48.20
51815;DHT22;37874;53.158;6.766;2023-02-08T16:18:54;19.10;48.30
51815;DHT22;37874;53.158;6.766;2023-02-08T16:21:36;19.20;48.80
51815;DHT22;37874;53.158;6.766;2023-02-08T16:26:41;19.00;48.80
51815;DHT22;37874;53.158;6.766;2023-02-08T16:29:17;18.90;48.90
51815;DHT22;37874;53.158;6.766;2023-02-08T16:31:46;19.20;49.40
51815;DHT22;37874;53.158;6.766;2023-02-08T16:34:20;18.80;49.30
51815;DHT22;37874;53.158;6.766;2023-02-08T16:36:50;18.70;49.40
51815;DHT22;37874;53.158;6.766;2023-02-08T16:42:02;18.60;49.80
51815;DHT22;37874;53.158;6.766;2023-02-08T16:44:31;18.50;50.00
51815;DHT22;37874;53.158;6.766;2023-02-08T16:46:59;18.50;50.10
51815;DHT22;37874;53.158;6.766;2023-02-08T16:49:25;18.40;50.20
51815;DHT22;37874;53.158;6.766;2023-02-08T16:51:58;18.30;50.30
51815;DHT22;37874;53.158;6.766;2023-02-08T16:54:25;18.30;50.40
51815;DHT22;37874;53.158;6.766;2023-02-08T16:56:52;18.20;50.50
51815;DHT22;37874;53.158;6.766;2023-02-08T16:59:27;18.30;50.60
51815;DHT22;37874;53.158;6.766;2023-02-08T17:01:53;18.20;50.70
51815;DHT22;37874;53.158;6.766;2023-02-08T17:04:21;18.10;50.70
51815;DHT22;37874;53.158;6.766;2023-02-08T17:06:46;18.10;50.90
51815;DHT22;37874;53.158;6.766;2023-02-08T17:09:13;18.10;51.00
51815;DHT22;37874;53.158;6.766;2023-02-08T17:11:39;18.00;51.00
51815;DHT22;37874;53.158;6.766;2023-02-08T17:14:06;18.60;51.40
51815;DHT22;37874;53.158;6.766;2023-02-08T17:16:33;18.00;51.20
51815;DHT22;37874;53.158;6.766;2023-02-08T17:19:00;18.00;51.30
51815;DHT22;37874;53.158;6.766;2023-02-08T17:21:27;17.90;51.30
51815;DHT22;37874;53.158;6.766;2023-02-08T17:23:56;18.50;51.80
51815;DHT22;37874;53.158;6.766;2023-02-08T17:26:24;17.80;51.40
51815;DHT22;37874;53.158;6.766;2023-02-08T17:28:55;17.80;52.00
51815;DHT22;37874;53.158;6.766;2023-02-08T17:31:21;17.80;51.60
51815;DHT22;37874;53.158;6.766;2023-02-08T17:33:47;17.80;51.60
51815;DHT22;37874;53.158;6.766;2023-02-08T17:36:14;17.70;51.60
51815;DHT22;37874;53.158;6.766;2023-02-08T17:38:42;17.60;51.60
51815;DHT22;37874;53.158;6.766;2023-02-08T17:41:16;18.00;52.00
51815;DHT22;37874;53.158;6.766;2023-02-08T17:43:42;17.70;51.90
51815;DHT22;37874;53.158;6.766;2023-02-08T17:46:14;17.70;51.80
51815;DHT22;37874;53.158;6.766;2023-02-08T17:48:40;17.70;52.00
51815;DHT22;37874;53.158;6.766;2023-02-08T17:51:08;17.70;51.90
51815;DHT22;37874;53.158;6.766;2023-02-08T17:53:34;17.60;51.80
51815;DHT22;37874;53.158;6.766;2023-02-08T17:56:06;17.70;52.00
51815;DHT22;37874;53.158;6.766;2023-02-08T17:58:34;17.60;51.90
51815;DHT22;37874;53.158;6.766;2023-02-08T18:01:00;17.60;52.10
51815;DHT22;37874;53.158;6.766;2023-02-08T18:03:25;17.60;51.90
51815;DHT22;37874;53.158;6.766;2023-02-08T18:05:55;17.60;52.10
51815;DHT22;37874;53.158;6.766;2023-02-08T18:08:21;17.60;52.00
51815;DHT22;37874;53.158;6.766;2023-02-08T18:10:47;17.60;52.00
51815;DHT22;37874;53.158;6.766;2023-02-08T18:13:13;17.50;52.00
51815;DHT22;37874;53.158;6.766;2023-02-08T18:15:38;17.90;52.30
51815;DHT22;37874;53.158;6.766;2023-02-08T18:18:04;17.50;52.10
51815;DHT22;37874;53.158;6.766;2023-02-08T18:20:30;17.50;52.10
51815;DHT22;37874;53.158;6.766;2023-02-08T18:22:56;17.50;52.20
51815;DHT22;37874;53.158;6.766;2023-02-08T18:25:21;17.50;52.20
51815;DHT22;37874;53.158;6.766;2023-02-08T18:27:47;17.50;52.20
51815;DHT22;37874;53.158;6.766;2023-02-08T18:30:13;17.50;52.20
51815;DHT22;37874;53.158;6.766;2023-02-08T18:32:39;17.50;52.20
51815;DHT22;37874;53.158;6.766;2023-02-08T18:35:05;17.50;52.20
51815;DHT22;37874;53.158;6.766;2023-02-08T18:37:32;17.50;52.10
51815;DHT22;37874;53.158;6.766;2023-02-08T18:39:59;17.50;52.20
51815;DHT22;37874;53.158;6.766;2023-02-08T18:42:24;17.50;52.10
51815;DHT22;37874;53.158;6.766;2023-02-08T18:44:50;17.40;52.20
51815;DHT22;37874;53.158;6.766;2023-02-08T18:47:16;17.40;52.20
51815;DHT22;37874;53.158;6.766;2023-02-08T18:49:42;17.40;52.20
51815;DHT22;37874;53.158;6.766;2023-02-08T18:52:09;17.40;52.20
51815;DHT22;37874;53.158;6.766;2023-02-08T18:54:37;17.40;52.20
51815;DHT22;37874;53.158;6.766;2023-02-08T18:57:03;18.50;52.80
51815;DHT22;37874;53.158;6.766;2023-02-08T18:59:31;17.40;52.20
51815;DHT22;37874;53.158;6.766;2023-02-08T19:01:58;17.40;52.30
51815;DHT22;37874;53.158;6.766;2023-02-08T19:04:24;17.50;52.40
51815;DHT22;37874;53.158;6.766;2023-02-08T19:06:49;17.40;52.30
51815;DHT22;37874;53.158;6.766;2023-02-08T19:09:22;17.40;52.30
51815;DHT22;37874;53.158;6.766;2023-02-08T19:12:09;16.70;52.00
51815;DHT22;37874;53.158;6.766;2023-02-08T19:14:35;18.40;52.80
51815;DHT22;37874;53.158;6.766;2023-02-08T19:17:01;18.10;53.00
51815;DHT22;37874;53.158;6.766;2023-02-08T19:19:27;17.50;52.40
51815;DHT22;37874;53.158;6.766;2023-02-08T19:21:52;17.50;52.30
51815;DHT22;37874;53.158;6.766;2023-02-08T19:24:18;17.40;52.50
51815;DHT22;37874;53.158;6.766;2023-02-08T19:26:44;18.10;52.80
51815;DHT22;37874;53.158;6.766;2023-02-08T19:29:12;17.40;52.50
51815;DHT22;37874;53.158;6.766;2023-02-08T19:31:39;18.10;52.80
51815;DHT22;37874;53.158;6.766;2023-02-08T19:34:05;16.60;52.10
51815;DHT22;37874;53.158;6.766;2023-02-08T19:36:35;17.40;52.60
51815;DHT22;37874;53.158;6.766;2023-02-08T19:39:03;17.30;52.30
51815;DHT22;37874;53.158;6.766;2023-02-08T19:41:32;17.30;52.40
51815;DHT22;37874;53.158;6.766;2023-02-08T19:43:59;17.30;52.40
51815;DHT22;37874;53.158;6.766;2023-02-08T19:46:25;19.00;53.10
51815;DHT22;37874;53.158;6.766;2023-02-08T19:48:54;18.30;52.90
51815;DHT22;37874;53.158;6.766;2023-02-08T19:51:20;17.30;52.40
51815;DHT22;37874;53.158;6.766;2023-02-08T19:53:51;18.40;53.00
51815;DHT22;37874;53.158;6.766;2023-02-08T19:56:17;17.80;52.60
51815;DHT22;37874;53.158;6.766;2023-02-08T19:58:44;18.70;53.00
51815;DHT22;37874;53.158;6.766;2023-02-08T20:03:40;18.10;52.80
51815;DHT22;37874;53.158;6.766;2023-02-08T20:06:23;17.30;52.30
51815;DHT22;37874;53.158;6.766;2023-02-08T20:08:50;17.90;52.60
51815;DHT22;37874;53.158;6.766;2023-02-08T20:11:23;17.60;52.60
51815;DHT22;37874;53.158;6.766;2023-02-08T20:13:50;17.30;52.30
51815;DHT22;37874;53.158;6.766;2023-02-08T20:16:18;17.20;52.40
51815;DHT22;37874;53.158;6.766;2023-02-08T20:18:44;18.10;52.80
51815;DHT22;37874;53.158;6.766;2023-02-08T20:21:10;18.50;53.00
51815;DHT22;37874;53.158;6.766;2023-02-08T20:23:36;18.30;52.90
51815;DHT22;37874;53.158;6.766;2023-02-08T20:26:14;17.50;52.50